createdAt,value
2022-11-09T00:00:06.280Z,58.80
2022-11-09T00:02:32.887Z,58.80
2022-11-09T00:04:59.456Z,58.80
2022-11-09T00:07:26.030Z,58.90
2022-11-09T00:09:52.623Z,58.80
2022-11-09T00:12:19.265Z,58.80
2022-11-09T00:14:45.834Z,58.80
2022-11-09T00:17:12.431Z,58.90
2022-11-09T00:19:38.994Z,58.80
2022-11-09T00:22:05.571Z,58.80
2022-11-09T00:24:32.143Z,58.80
2022-11-09T00:26:58.715Z,58.70
2022-11-09T00:29:25.281Z,58.80
2022-11-09T00:31:51.871Z,58.80
2022-11-09T00:34:18.434Z,58.70
2022-11-09T00:36:45.043Z,58.70
2022-11-09T00:39:11.628Z,58.70
2022-11-09T00:41:38.201Z,58.70
2022-11-09T00:44:05.017Z,58.70
2022-11-09T00:46:32.123Z,58.60
2022-11-09T00:48:58.922Z,58.70
2022-11-09T00:51:25.575Z,58.80
2022-11-09T00:53:54.511Z,58.80
2022-11-09T00:56:21.722Z,58.80
2022-11-09T00:58:48.318Z,58.80
2022-11-09T01:01:16.276Z,58.80
2022-11-09T01:03:43.683Z,58.80
2022-11-09T01:06:13.935Z,58.80
2022-11-09T01:08:40.527Z,58.90
2022-11-09T01:11:08.099Z,58.90
2022-11-09T01:13:34.895Z,58.90
2022-11-09T01:16:07.842Z,58.90
2022-11-09T01:18:34.435Z,58.90
2022-11-09T01:21:02.036Z,58.80
2022-11-09T01:23:28.630Z,58.80
2022-11-09T01:25:59.442Z,58.90
2022-11-09T01:28:26.077Z,58.90
2022-11-09T01:30:52.672Z,58.90
2022-11-09T01:33:19.485Z,58.90
2022-11-09T01:35:46.234Z,58.90
2022-11-09T01:38:12.871Z,58.80
2022-11-09T01:40:39.900Z,58.80
2022-11-09T01:43:17.625Z,58.80
2022-11-09T01:45:48.290Z,58.80
2022-11-09T01:48:22.132Z,58.80
2022-11-09T01:50:53.651Z,58.70
2022-11-09T01:53:26.019Z,58.70
2022-11-09T01:55:54.149Z,58.80
2022-11-09T01:58:26.851Z,58.80
2022-11-09T02:00:53.493Z,58.90
2022-11-09T02:03:23.159Z,58.90
2022-11-09T02:05:49.864Z,58.90
2022-11-09T02:08:18.162Z,58.90
2022-11-09T02:11:08.645Z,58.90
2022-11-09T02:13:35.623Z,58.90
2022-11-09T02:16:02.309Z,58.90
2022-11-09T02:18:28.986Z,58.90
2022-11-09T02:20:56.983Z,58.90
2022-11-09T02:23:26.254Z,58.90
2022-11-09T02:25:58.715Z,58.90
2022-11-09T02:28:25.413Z,58.90
2022-11-09T02:30:53.083Z,58.90
2022-11-09T02:33:20.085Z,58.90
2022-11-09T02:35:46.847Z,59.00
2022-11-09T02:38:14.155Z,58.90
2022-11-09T02:40:42.471Z,58.90
2022-11-09T02:43:09.870Z,58.90
2022-11-09T02:45:36.627Z,58.90
2022-11-09T02:48:03.734Z,58.80
2022-11-09T02:50:30.298Z,58.80
2022-11-09T02:52:56.934Z,58.80
2022-11-09T02:55:23.516Z,58.80
2022-11-09T02:57:50.090Z,58.70
2022-11-09T03:00:16.892Z,58.70
2022-11-09T03:02:43.485Z,58.70
2022-11-09T03:05:10.178Z,58.80
2022-11-09T03:07:36.750Z,58.80
2022-11-09T03:10:03.745Z,58.80
2022-11-09T03:12:30.379Z,58.70
2022-11-09T03:15:01.342Z,58.80
2022-11-09T03:17:27.951Z,58.80
2022-11-09T03:19:54.656Z,58.90
2022-11-09T03:22:21.444Z,58.90
2022-11-09T03:24:48.013Z,58.70
2022-11-09T03:27:14.736Z,58.80
2022-11-09T03:29:41.316Z,58.80
2022-11-09T03:32:08.867Z,58.80
2022-11-09T03:34:35.433Z,58.90
2022-11-09T03:37:02.061Z,58.80
2022-11-09T03:39:28.625Z,58.90
2022-11-09T03:41:55.277Z,58.70
2022-11-09T03:44:21.862Z,58.70
2022-11-09T03:46:48.478Z,58.80
2022-11-09T03:49:15.047Z,58.70
2022-11-09T03:51:41.623Z,58.80
2022-11-09T03:54:08.247Z,58.70
2022-11-09T03:56:34.827Z,58.80
2022-11-09T03:59:01.447Z,58.70
2022-11-09T04:01:28.095Z,58.70
2022-11-09T04:03:54.703Z,58.70
2022-11-09T04:06:21.277Z,58.60
2022-11-09T04:08:51.276Z,58.60
2022-11-09T04:11:18.305Z,58.50
2022-11-09T04:13:44.875Z,58.60
2022-11-09T04:16:12.329Z,58.60
2022-11-09T04:18:38.890Z,58.60
2022-11-09T04:21:05.458Z,58.70
2022-11-09T04:23:32.039Z,58.70
2022-11-09T04:25:59.533Z,58.70
2022-11-09T04:28:26.508Z,58.70
2022-11-09T04:30:53.078Z,58.70
2022-11-09T04:33:20.148Z,58.70
2022-11-09T04:35:46.874Z,58.70
2022-11-09T04:38:13.887Z,58.70
2022-11-09T04:40:40.785Z,58.80
2022-11-09T04:43:09.783Z,58.70
2022-11-09T04:45:36.346Z,58.80
2022-11-09T04:48:04.599Z,58.70
2022-11-09T04:50:31.214Z,58.70
2022-11-09T04:53:09.191Z,58.70
2022-11-09T04:55:35.899Z,58.70
2022-11-09T04:58:02.513Z,58.70
2022-11-09T05:00:29.173Z,58.70
2022-11-09T05:02:55.746Z,58.70
2022-11-09T05:05:22.323Z,58.70
2022-11-09T05:07:48.894Z,58.70
2022-11-09T05:10:15.627Z,58.70
2022-11-09T05:12:45.733Z,58.70
2022-11-09T05:15:12.643Z,58.70
2022-11-09T05:17:39.242Z,58.60
2022-11-09T05:20:06.204Z,58.60
2022-11-09T05:22:51.273Z,58.60
2022-11-09T05:25:17.867Z,58.50
2022-11-09T05:27:44.463Z,58.50
2022-11-09T05:30:11.557Z,58.50
2022-11-09T05:32:41.238Z,58.60
2022-11-09T05:35:08.214Z,58.60
2022-11-09T05:37:34.811Z,58.50
2022-11-09T05:40:01.511Z,58.50
2022-11-09T05:42:28.087Z,58.50
2022-11-09T05:44:55.713Z,58.40
2022-11-09T05:47:22.285Z,58.40
2022-11-09T05:49:48.923Z,58.30
2022-11-09T05:52:15.494Z,58.30
2022-11-09T05:54:42.064Z,58.30
2022-11-09T05:57:08.642Z,58.20
2022-11-09T05:59:35.206Z,58.60
2022-11-09T06:02:01.831Z,59.10
2022-11-09T06:04:28.447Z,59.50
2022-11-09T06:06:55.167Z,59.10
2022-11-09T06:09:21.799Z,59.00
2022-11-09T06:11:49.711Z,58.70
2022-11-09T06:14:16.293Z,58.40
2022-11-09T06:16:42.870Z,58.20
2022-11-09T06:19:09.495Z,58.00
2022-11-09T06:21:36.087Z,58.70
2022-11-09T06:24:02.663Z,58.50
2022-11-09T06:26:29.282Z,58.10
2022-11-09T06:28:55.851Z,58.10
2022-11-09T06:31:22.440Z,58.00
2022-11-09T06:33:49.005Z,58.00
2022-11-09T06:36:15.591Z,58.10
2022-11-09T06:38:42.194Z,58.20
2022-11-09T06:41:09.425Z,58.30
2022-11-09T06:43:35.995Z,58.20
2022-11-09T06:46:03.861Z,58.10
2022-11-09T06:48:30.420Z,58.10
2022-11-09T06:51:01.091Z,58.10
2022-11-09T06:53:29.765Z,58.10
2022-11-09T06:56:00.083Z,58.10
2022-11-09T06:58:26.937Z,58.10
2022-11-09T07:00:53.646Z,58.20
2022-11-09T07:03:20.798Z,58.10
2022-11-09T07:05:47.995Z,58.10
2022-11-09T07:08:14.749Z,58.20
2022-11-09T07:10:41.604Z,58.10
2022-11-09T07:13:08.351Z,58.00
2022-11-09T07:15:35.381Z,58.00
2022-11-09T07:18:02.774Z,58.00
2022-11-09T07:20:29.601Z,58.10
2022-11-09T07:22:56.233Z,58.00
2022-11-09T07:25:22.893Z,58.00
2022-11-09T07:27:49.478Z,58.10
2022-11-09T07:30:16.292Z,58.10
2022-11-09T07:35:29.690Z,58.10
2022-11-09T07:37:59.937Z,58.10
2022-11-09T07:40:26.886Z,58.10
2022-11-09T07:42:53.458Z,58.10
2022-11-09T07:45:20.038Z,58.10
2022-11-09T07:47:46.620Z,58.10
2022-11-09T07:50:13.181Z,58.10
2022-11-09T07:52:39.766Z,58.20
2022-11-09T07:55:06.774Z,58.10
2022-11-09T07:57:33.356Z,58.20
2022-11-09T07:59:59.921Z,58.20
2022-11-09T08:02:26.655Z,58.20
2022-11-09T08:04:53.913Z,58.20
2022-11-09T08:07:20.507Z,58.20
2022-11-09T08:09:47.095Z,58.20
2022-11-09T08:12:13.679Z,58.20
2022-11-09T08:14:40.249Z,58.20
2022-11-09T08:17:06.827Z,58.20
2022-11-09T08:19:33.423Z,58.20
2022-11-09T08:22:00.162Z,58.10
2022-11-09T08:24:26.727Z,58.20
2022-11-09T08:26:53.307Z,58.20
2022-11-09T08:29:19.875Z,58.20
2022-11-09T08:31:48.523Z,58.20
2022-11-09T08:34:15.113Z,58.20
2022-11-09T08:36:41.678Z,58.20
2022-11-09T08:39:08.268Z,58.20
2022-11-09T08:41:34.957Z,58.20
2022-11-09T08:44:01.544Z,58.20
2022-11-09T08:46:28.127Z,58.10
2022-11-09T08:48:54.714Z,58.20
2022-11-09T08:51:21.278Z,58.20
2022-11-09T08:53:47.850Z,58.20
2022-11-09T08:56:18.297Z,58.30
2022-11-09T08:58:45.354Z,58.30
2022-11-09T09:01:16.678Z,59.00
2022-11-09T09:03:43.740Z,58.30
2022-11-09T09:06:10.309Z,58.40
2022-11-09T09:08:36.885Z,58.30
2022-11-09T09:11:04.249Z,58.30
2022-11-09T09:13:31.502Z,58.30
2022-11-09T09:15:58.343Z,58.30
2022-11-09T09:18:24.924Z,58.40
2022-11-09T09:20:51.637Z,58.40
2022-11-09T09:23:18.282Z,58.40
2022-11-09T09:25:44.935Z,58.50
2022-11-09T09:28:11.618Z,58.40
2022-11-09T09:30:38.216Z,58.30
2022-11-09T09:33:04.797Z,58.40
2022-11-09T09:35:31.666Z,58.30
2022-11-09T09:37:58.453Z,58.30
2022-11-09T09:40:30.011Z,58.40
2022-11-09T09:42:56.589Z,58.40
2022-11-09T09:45:32.393Z,58.40
2022-11-09T09:48:21.027Z,58.40
2022-11-09T09:50:50.627Z,58.40
2022-11-09T09:53:37.062Z,58.40
2022-11-09T09:56:09.961Z,58.40
2022-11-09T09:58:37.941Z,58.40
2022-11-09T10:01:12.423Z,58.50
2022-11-09T10:03:39.253Z,58.40
2022-11-09T10:06:32.602Z,58.60
2022-11-09T10:09:08.917Z,58.50
2022-11-09T10:12:18.754Z,58.60
2022-11-09T10:14:54.815Z,58.60
2022-11-09T10:17:24.743Z,58.70
2022-11-09T10:20:19.999Z,58.70
2022-11-09T10:23:11.916Z,58.70
2022-11-09T10:28:27.143Z,58.70
2022-11-09T10:30:53.718Z,58.70
2022-11-09T10:33:21.345Z,58.70
2022-11-09T10:36:21.975Z,58.70
2022-11-09T10:38:50.123Z,58.70
2022-11-09T10:41:29.927Z,58.60
2022-11-09T10:43:56.494Z,58.70
2022-11-09T10:46:23.108Z,58.70
2022-11-09T10:48:49.739Z,58.70
2022-11-09T10:51:39.599Z,58.70
2022-11-09T10:54:18.967Z,58.70
2022-11-09T10:57:06.679Z,58.70
2022-11-09T10:59:47.270Z,58.60
2022-11-09T11:02:26.349Z,58.60
2022-11-09T11:04:57.890Z,58.60
2022-11-09T11:07:24.783Z,58.70
2022-11-09T11:09:51.388Z,58.60
2022-11-09T11:12:20.346Z,58.60
2022-11-09T11:14:47.017Z,58.60
2022-11-09T11:17:24.353Z,58.60
2022-11-09T11:19:50.993Z,58.50
2022-11-09T11:22:23.394Z,58.50
2022-11-09T11:24:53.853Z,58.60
2022-11-09T11:27:37.811Z,58.60
2022-11-09T11:30:14.714Z,58.70
2022-11-09T11:32:47.062Z,58.70
2022-11-09T11:35:29.006Z,58.60
2022-11-09T11:38:27.562Z,58.70
2022-11-09T11:41:02.088Z,58.70
2022-11-09T11:43:47.336Z,58.80
2022-11-09T11:46:31.661Z,58.70
2022-11-09T11:49:17.275Z,58.80
2022-11-09T11:51:56.534Z,58.70
2022-11-09T11:54:33.370Z,58.70
2022-11-09T11:57:22.539Z,58.70
2022-11-09T12:00:10.155Z,58.80
2022-11-09T12:02:55.564Z,58.70
2022-11-09T12:05:51.200Z,58.70
2022-11-09T12:08:39.546Z,58.70
2022-11-09T12:11:21.672Z,58.60
2022-11-09T12:14:16.820Z,58.60
2022-11-09T12:17:03.527Z,58.60
2022-11-09T12:20:20.647Z,58.60
2022-11-09T12:22:54.965Z,58.80
2022-11-09T12:25:44.229Z,59.20
2022-11-09T12:28:43.934Z,58.90
2022-11-09T12:31:34.304Z,59.30
2022-11-09T12:34:15.050Z,59.20
2022-11-09T12:37:01.951Z,59.20
2022-11-09T12:39:48.748Z,59.40
2022-11-09T12:42:43.271Z,59.50
2022-11-09T12:45:33.246Z,59.80
2022-11-09T12:48:03.740Z,59.70
2022-11-09T12:50:30.390Z,59.50
2022-11-09T12:52:57.069Z,59.30
2022-11-09T12:55:45.162Z,59.10
2022-11-09T12:58:39.209Z,59.00
2022-11-09T13:01:13.356Z,59.10
2022-11-09T13:03:51.414Z,59.10
2022-11-09T13:06:29.598Z,59.20
2022-11-09T13:09:00.295Z,59.10
2022-11-09T13:11:33.933Z,59.20
2022-11-09T13:14:30.111Z,59.10
2022-11-09T13:16:58.177Z,59.20
2022-11-09T13:19:39.986Z,59.20
2022-11-09T13:22:12.774Z,59.10
2022-11-09T13:24:59.894Z,59.10
2022-11-09T13:27:47.162Z,59.20
2022-11-09T13:30:25.635Z,59.20
2022-11-09T13:33:07.891Z,59.30
2022-11-09T13:35:40.216Z,59.30
2022-11-09T13:38:25.677Z,59.30
2022-11-09T13:40:59.243Z,59.40
2022-11-09T13:43:31.707Z,59.40
2022-11-09T13:46:22.688Z,59.40
2022-11-09T13:48:49.721Z,59.40
2022-11-09T13:51:23.785Z,59.30
2022-11-09T13:54:00.579Z,59.30
2022-11-09T13:56:29.917Z,59.30
2022-11-09T13:59:03.878Z,59.30
2022-11-09T14:01:34.282Z,59.20
2022-11-09T14:04:03.732Z,59.20
2022-11-09T14:06:30.413Z,59.20
2022-11-09T14:08:57.331Z,59.20
2022-11-09T14:11:57.123Z,59.10
2022-11-09T14:14:52.251Z,59.10
2022-11-09T14:17:54.905Z,59.10
2022-11-09T14:20:26.120Z,59.10
2022-11-09T14:22:52.699Z,59.10
2022-11-09T14:25:23.475Z,59.10
2022-11-09T14:27:57.384Z,59.00
2022-11-09T14:30:29.233Z,59.00
2022-11-09T14:32:56.464Z,58.90
2022-11-09T14:35:29.422Z,58.90
2022-11-09T14:37:56.516Z,58.90
2022-11-09T14:40:30.925Z,58.90
2022-11-09T14:43:02.266Z,58.90
2022-11-09T14:45:29.014Z,58.80
2022-11-09T14:47:59.457Z,58.80
2022-11-09T14:50:27.931Z,58.90
2022-11-09T14:52:54.661Z,59.40
2022-11-09T14:55:22.196Z,59.70
2022-11-09T14:57:49.295Z,60.10
2022-11-09T15:00:26.243Z,60.10
2022-11-09T15:02:52.950Z,59.80
2022-11-09T15:05:39.204Z,59.60
2022-11-09T15:08:13.744Z,59.40
2022-11-09T15:10:40.334Z,59.20
2022-11-09T15:13:06.905Z,59.10
2022-11-09T15:15:34.449Z,59.00
2022-11-09T15:18:01.021Z,58.90
2022-11-09T15:20:30.197Z,58.60
2022-11-09T15:22:58.597Z,59.20
2022-11-09T15:25:54.458Z,58.80
2022-11-09T15:28:21.136Z,58.60
2022-11-09T15:30:53.838Z,58.60
2022-11-09T15:33:28.888Z,58.50
2022-11-09T15:35:59.626Z,58.50
2022-11-09T15:38:44.650Z,58.40
2022-11-09T15:41:16.106Z,58.40
2022-11-09T15:43:43.350Z,58.30
2022-11-09T15:46:15.049Z,58.20
2022-11-09T15:48:45.743Z,58.10
2022-11-09T15:51:13.385Z,58.20
2022-11-09T15:53:39.964Z,58.10
2022-11-09T15:56:06.940Z,58.30
2022-11-09T15:58:33.519Z,58.00
2022-11-09T16:01:00.160Z,58.20
2022-11-09T16:03:26.995Z,58.10
2022-11-09T16:05:53.573Z,58.00
2022-11-09T16:08:20.460Z,58.10
2022-11-09T16:10:47.204Z,58.00
2022-11-09T16:13:14.254Z,57.90
2022-11-09T16:15:40.831Z,57.90
2022-11-09T16:18:07.433Z,58.00
2022-11-09T16:20:34.016Z,57.80
2022-11-09T16:23:00.599Z,57.90
2022-11-09T16:25:27.232Z,57.80
2022-11-09T16:27:53.822Z,58.00
2022-11-09T16:30:20.622Z,58.10
2022-11-09T16:32:47.218Z,58.00
2022-11-09T16:35:29.296Z,58.00
2022-11-09T16:37:56.031Z,58.10
2022-11-09T16:40:22.732Z,58.10
2022-11-09T16:42:49.450Z,58.10
2022-11-09T16:45:16.108Z,58.20
2022-11-09T16:47:45.782Z,58.80
2022-11-09T16:50:12.361Z,58.30
2022-11-09T16:52:38.956Z,58.40
2022-11-09T16:55:07.667Z,58.40
2022-11-09T16:57:34.261Z,58.40
2022-11-09T17:00:00.840Z,58.40
2022-11-09T17:02:27.473Z,58.70
2022-11-09T17:04:54.094Z,58.50
2022-11-09T17:07:20.775Z,58.90
2022-11-09T17:09:47.342Z,58.90
2022-11-09T17:12:14.218Z,58.80
2022-11-09T17:14:40.792Z,58.70
2022-11-09T17:17:07.411Z,58.70
2022-11-09T17:19:34.655Z,58.70
2022-11-09T17:22:01.338Z,58.00
2022-11-09T17:24:28.128Z,54.30
2022-11-09T17:26:54.709Z,55.00
2022-11-09T17:29:22.203Z,56.00
2022-11-09T17:31:48.844Z,55.90
2022-11-09T17:34:15.902Z,56.00
2022-11-09T17:37:03.100Z,56.30
2022-11-09T17:39:29.279Z,56.40
2022-11-09T17:41:55.903Z,56.90
2022-11-09T17:44:22.471Z,57.50
2022-11-09T17:46:49.092Z,57.30
2022-11-09T17:49:15.659Z,58.40
2022-11-09T17:51:42.296Z,57.80
2022-11-09T17:54:08.854Z,57.40
2022-11-09T17:56:35.767Z,57.30
2022-11-09T17:59:04.156Z,57.20
2022-11-09T18:01:30.825Z,57.30
2022-11-09T18:03:57.585Z,57.20
2022-11-09T18:06:24.375Z,57.90
2022-11-09T18:09:10.836Z,58.70
2022-11-09T18:11:37.527Z,58.80
2022-11-09T18:14:04.281Z,58.40
2022-11-09T18:16:30.877Z,58.20
2022-11-09T18:19:01.736Z,58.20
2022-11-09T18:21:28.648Z,58.20
2022-11-09T18:23:55.294Z,58.20
2022-11-09T18:26:21.906Z,58.20
2022-11-09T18:28:48.568Z,58.20
2022-11-09T18:31:15.151Z,58.30
2022-11-09T18:33:42.748Z,58.10
2022-11-09T18:36:15.531Z,58.10
2022-11-09T18:38:42.927Z,58.30
2022-11-09T18:41:14.621Z,58.30
2022-11-09T18:43:41.467Z,58.40
2022-11-09T18:46:09.905Z,58.30
2022-11-09T18:48:37.581Z,58.40
2022-11-09T18:51:04.839Z,58.10
2022-11-09T18:53:44.811Z,58.00
2022-11-09T18:56:18.982Z,58.00
2022-11-09T18:58:45.983Z,58.00
2022-11-09T19:01:12.576Z,58.10
2022-11-09T19:03:39.154Z,57.90
2022-11-09T19:06:07.289Z,58.00
2022-11-09T19:09:06.078Z,58.00
2022-11-09T19:11:32.754Z,58.00
2022-11-09T19:13:59.375Z,58.10
2022-11-09T19:16:26.281Z,58.00
2022-11-09T19:18:52.873Z,58.10
2022-11-09T19:21:26.914Z,58.10
2022-11-09T19:23:53.643Z,58.10
2022-11-09T19:26:21.101Z,58.10
2022-11-09T19:28:47.699Z,58.30
2022-11-09T19:31:15.477Z,58.30
2022-11-09T19:33:42.117Z,58.40
2022-11-09T19:36:29.158Z,58.50
2022-11-09T19:38:56.122Z,58.50
2022-11-09T19:41:24.506Z,58.40
2022-11-09T19:43:51.781Z,58.40
2022-11-09T19:46:18.385Z,58.50
2022-11-09T19:48:45.755Z,58.40
2022-11-09T19:51:12.631Z,58.50
2022-11-09T19:53:42.334Z,58.40
2022-11-09T19:56:09.511Z,58.50
2022-11-09T19:58:36.163Z,58.50
2022-11-09T20:01:07.368Z,58.50
2022-11-09T20:03:34.288Z,58.40
2022-11-09T20:06:00.930Z,58.20
2022-11-09T20:08:27.621Z,58.40
2022-11-09T20:10:54.210Z,58.50
2022-11-09T20:13:24.536Z,58.40
2022-11-09T20:15:51.110Z,58.90
2022-11-09T20:18:18.931Z,58.30
2022-11-09T20:20:45.858Z,58.30
2022-11-09T20:23:13.259Z,58.30
2022-11-09T20:25:41.952Z,58.30
2022-11-09T20:28:08.535Z,58.30
2022-11-09T20:30:35.107Z,58.30
2022-11-09T20:33:01.888Z,58.30
2022-11-09T20:35:28.484Z,58.30
2022-11-09T20:37:55.063Z,58.40
2022-11-09T20:40:21.631Z,58.50
2022-11-09T20:42:48.202Z,58.50
2022-11-09T20:45:15.459Z,58.60
2022-11-09T20:48:07.259Z,58.60
2022-11-09T20:50:28.606Z,58.60
2022-11-09T20:52:55.190Z,58.70
2022-11-09T20:55:21.760Z,58.90
2022-11-09T20:57:48.345Z,58.80
2022-11-09T21:00:18.151Z,58.70
2022-11-09T21:02:47.000Z,58.80
2022-11-09T21:05:13.573Z,58.80
2022-11-09T21:07:40.154Z,58.80
2022-11-09T21:10:06.930Z,58.80
2022-11-09T21:12:33.503Z,58.70
2022-11-09T21:15:00.078Z,58.90
2022-11-09T21:17:26.672Z,58.70
2022-11-09T21:19:53.367Z,58.60
2022-11-09T21:22:19.934Z,58.50
2022-11-09T21:25:05.276Z,58.60
2022-11-09T21:27:34.845Z,58.60
2022-11-09T21:30:01.472Z,58.60
2022-11-09T21:32:28.078Z,58.60
2022-11-09T21:34:54.645Z,58.60
2022-11-09T21:37:21.223Z,58.60
2022-11-09T21:39:47.803Z,58.60
2022-11-09T21:42:14.771Z,58.60
2022-11-09T21:44:41.348Z,59.30
2022-11-09T21:47:08.002Z,59.40
2022-11-09T21:49:34.616Z,59.20
2022-11-09T21:52:01.260Z,59.20
2022-11-09T21:54:28.377Z,59.20
2022-11-09T21:56:55.065Z,59.20
2022-11-09T21:59:21.695Z,59.20
2022-11-09T22:01:48.437Z,59.20
2022-11-09T22:04:15.342Z,59.20
2022-11-09T22:06:43.275Z,59.70
2022-11-09T22:09:17.154Z,59.10
2022-11-09T22:12:02.492Z,59.10
2022-11-09T22:14:47.854Z,59.10
2022-11-09T22:17:14.845Z,59.10
2022-11-09T22:20:00.316Z,59.10
2022-11-09T22:22:30.168Z,59.00
2022-11-09T22:24:56.910Z,59.10
2022-11-09T22:27:23.567Z,59.10
2022-11-09T22:29:50.142Z,59.20
2022-11-09T22:32:16.793Z,59.10
2022-11-09T22:34:44.637Z,59.10
2022-11-09T22:37:11.266Z,59.10
2022-11-09T22:39:39.801Z,59.10
2022-11-09T22:42:09.614Z,59.00
2022-11-09T22:44:36.589Z,59.60
2022-11-09T22:47:03.277Z,59.00
2022-11-09T22:49:29.838Z,59.00
2022-11-09T22:51:56.425Z,59.00
2022-11-09T22:54:23.042Z,58.90
2022-11-09T22:56:49.654Z,58.90
2022-11-09T22:59:16.231Z,58.90
2022-11-09T23:01:42.860Z,59.00
2022-11-09T23:04:10.427Z,58.90
2022-11-09T23:06:37.035Z,58.90
2022-11-09T23:09:03.835Z,58.90
2022-11-09T23:11:30.435Z,59.60
2022-11-09T23:13:56.999Z,59.00
2022-11-09T23:16:23.689Z,59.00
2022-11-09T23:18:56.397Z,59.00
2022-11-09T23:21:26.939Z,59.00
2022-11-09T23:23:54.449Z,59.00
2022-11-09T23:26:21.482Z,59.00
2022-11-09T23:28:48.381Z,59.00
2022-11-09T23:31:16.486Z,59.00
2022-11-09T23:33:43.243Z,59.00
2022-11-09T23:36:10.032Z,59.00
2022-11-09T23:38:37.663Z,59.00
2022-11-09T23:41:05.201Z,59.00
2022-11-09T23:43:31.851Z,59.00
2022-11-09T23:46:06.508Z,59.00
2022-11-09T23:48:33.111Z,59.00
2022-11-09T23:51:00.294Z,59.00
2022-11-09T23:53:27.321Z,59.00
2022-11-09T23:55:54.127Z,59.00
2022-11-09T23:58:20.709Z,59.00
